createdAt,value
2022-10-14T00:01:58.090Z,10.20
2022-10-14T00:06:50.723Z,10.10
2022-10-14T00:11:43.457Z,10.00
2022-10-14T00:16:39.993Z,9.90
2022-10-14T00:21:35.167Z,9.90
2022-10-14T00:26:41.798Z,9.80
2022-10-14T00:32:06.570Z,9.90
2022-10-14T00:37:00.644Z,10.00
2022-10-14T00:41:53.266Z,10.20
2022-10-14T00:46:50.742Z,10.40
2022-10-14T00:51:47.154Z,10.40
2022-10-14T01:01:51.439Z,10.50
2022-10-14T01:07:04.673Z,10.60
2022-10-14T01:12:28.633Z,10.70
2022-10-14T01:17:36.327Z,10.90
2022-10-14T01:22:37.389Z,11.00
2022-10-14T01:27:48.510Z,11.00
2022-10-14T01:33:12.227Z,11.00
2022-10-14T01:38:13.335Z,11.00
2022-10-14T01:43:11.134Z,11.10
2022-10-14T01:48:06.695Z,11.10
2022-10-14T01:58:16.078Z,11.30
2022-10-14T02:03:13.085Z,11.30
2022-10-14T02:08:20.154Z,11.40
2022-10-14T02:13:44.809Z,11.40
2022-10-14T02:18:51.756Z,11.40
2022-10-14T02:24:05.478Z,11.40
2022-10-14T02:29:00.290Z,11.40
2022-10-14T02:33:58.318Z,11.40
2022-10-14T02:38:52.807Z,11.40
2022-10-14T02:43:46.560Z,11.40
2022-10-14T02:48:39.088Z,11.40
2022-10-14T02:53:32.046Z,11.50
2022-10-14T02:58:24.812Z,11.50
2022-10-14T03:03:17.629Z,11.50
2022-10-14T03:08:12.520Z,11.50
2022-10-14T03:18:15.827Z,11.50
2022-10-14T03:23:11.754Z,11.50
2022-10-14T03:28:06.630Z,11.60
2022-10-14T03:33:14.949Z,11.70
2022-10-14T03:38:17.572Z,11.70
2022-10-14T03:43:11.885Z,11.70
2022-10-14T03:48:18.223Z,11.70
2022-10-14T03:53:10.911Z,11.70
2022-10-14T03:58:03.446Z,11.70
2022-10-14T04:02:56.795Z,11.70
2022-10-14T04:07:57.889Z,11.70
2022-10-14T04:18:13.991Z,11.70
2022-10-14T04:23:08.536Z,11.70
2022-10-14T04:34:18.251Z,11.70
2022-10-14T04:44:45.671Z,11.70
2022-10-14T04:49:39.945Z,11.60
2022-10-14T04:54:43.611Z,11.50
2022-10-14T04:59:36.515Z,11.50
2022-10-14T05:04:29.133Z,11.50
2022-10-14T05:09:23.316Z,11.50
2022-10-14T05:20:14.818Z,11.60
2022-10-14T05:31:09.238Z,11.70
2022-10-14T05:36:10.206Z,11.70
2022-10-14T05:41:04.046Z,11.60
2022-10-14T05:45:58.344Z,11.70
2022-10-14T05:57:45.973Z,11.70
2022-10-14T06:02:43.311Z,11.80
2022-10-14T06:08:22.135Z,11.90
2022-10-14T06:13:59.304Z,12.10
2022-10-14T06:19:04.240Z,12.20
2022-10-14T06:23:58.874Z,12.30
2022-10-14T06:29:20.959Z,12.40
2022-10-14T06:35:22.791Z,12.60
2022-10-14T06:41:44.187Z,12.70
2022-10-14T06:49:06.742Z,12.90
2022-10-14T06:55:14.775Z,13.00
2022-10-14T07:14:50.727Z,13.60
2022-10-14T07:21:25.056Z,13.80
2022-10-14T07:34:32.221Z,14.10
2022-10-14T07:40:56.569Z,14.30
2022-10-14T07:47:07.101Z,14.30
2022-10-14T07:59:39.267Z,14.80
2022-10-14T08:42:45.135Z,16.00
2022-10-14T08:47:47.929Z,16.00
2022-10-14T09:36:29.679Z,17.40
2022-10-14T09:42:47.373Z,17.40
2022-10-14T11:23:39.106Z,19.40
2022-10-14T11:34:45.215Z,19.30
2022-10-14T11:39:53.283Z,19.00
2022-10-14T11:45:08.453Z,18.70
2022-10-14T11:50:24.551Z,18.80
2022-10-14T11:55:30.011Z,19.00
2022-10-14T12:00:49.481Z,19.10
2022-10-14T12:06:07.479Z,19.50
2022-10-14T12:11:33.969Z,19.90
2022-10-14T12:17:30.433Z,19.90
2022-10-14T12:23:38.915Z,20.00
2022-10-14T12:42:34.834Z,18.80
2022-10-14T12:48:42.320Z,18.70
2022-10-14T13:02:08.539Z,19.30
2022-10-14T13:07:42.417Z,19.50
2022-10-14T13:13:49.815Z,19.60
2022-10-14T13:20:06.079Z,19.70
2022-10-14T13:26:14.594Z,19.50
2022-10-14T13:32:25.861Z,19.00
2022-10-14T13:38:35.216Z,18.80
2022-10-14T13:44:42.412Z,18.60
2022-10-14T13:50:49.935Z,18.50
2022-10-14T13:57:19.926Z,18.50
2022-10-14T14:03:23.945Z,18.50
2022-10-14T14:09:13.285Z,18.30
2022-10-14T14:15:21.012Z,18.10
2022-10-14T14:20:34.329Z,18.00
2022-10-14T14:25:36.657Z,17.90
2022-10-14T14:30:40.558Z,18.00
2022-10-14T14:35:35.219Z,18.00
2022-10-14T14:40:30.386Z,18.00
2022-10-14T14:45:26.374Z,18.00
2022-10-14T14:50:34.559Z,17.80
2022-10-14T14:56:03.830Z,17.80
2022-10-14T15:00:58.668Z,17.80
2022-10-14T15:06:02.175Z,17.70
2022-10-14T15:10:57.044Z,17.50
2022-10-14T15:15:56.916Z,17.30
2022-10-14T15:20:49.794Z,17.10
2022-10-14T15:25:43.785Z,17.00
2022-10-14T15:30:52.013Z,16.90
2022-10-14T15:35:46.512Z,16.80
2022-10-14T15:40:41.286Z,16.80
2022-10-14T15:45:33.703Z,16.70
2022-10-14T15:50:27.168Z,16.70
2022-10-14T15:55:22.650Z,16.60
2022-10-14T16:00:16.517Z,16.60
2022-10-14T16:05:25.408Z,16.50
2022-10-14T16:10:29.287Z,16.40
2022-10-14T16:15:47.685Z,16.40
2022-10-14T16:20:50.477Z,16.30
2022-10-14T16:25:46.434Z,16.40
2022-10-14T16:30:54.921Z,16.30
2022-10-14T16:35:51.614Z,16.20
2022-10-14T16:40:44.011Z,16.20
2022-10-14T16:45:38.533Z,16.20
2022-10-14T16:50:37.876Z,16.10
2022-10-14T16:55:31.253Z,15.90
2022-10-14T17:00:23.774Z,15.70
2022-10-14T17:05:19.083Z,15.50
2022-10-14T17:10:14.252Z,15.40
2022-10-14T17:15:07.478Z,15.30
2022-10-14T17:20:00.665Z,15.30
2022-10-14T17:24:55.924Z,15.10
2022-10-14T17:29:48.326Z,15.00
2022-10-14T17:34:41.409Z,15.00
2022-10-14T17:39:35.065Z,15.00
2022-10-14T17:44:34.363Z,15.00
2022-10-14T17:50:12.829Z,15.00
2022-10-14T17:55:12.476Z,15.10
2022-10-14T18:00:08.768Z,15.10
2022-10-14T18:28:13.894Z,15.00
2022-10-14T18:33:07.126Z,15.00
2022-10-14T18:38:02.532Z,14.90
2022-10-14T18:42:58.774Z,14.80
2022-10-14T18:47:53.707Z,14.70
2022-10-14T18:52:46.302Z,14.60
2022-10-14T18:57:45.404Z,14.50
2022-10-14T19:02:39.678Z,14.40
2022-10-14T19:07:37.259Z,14.40
2022-10-14T19:12:47.966Z,14.40
2022-10-14T19:18:06.151Z,14.40
2022-10-14T19:28:51.902Z,14.40
2022-10-14T19:33:56.133Z,14.40
2022-10-14T19:39:04.302Z,14.30
2022-10-14T19:44:05.125Z,14.30
2022-10-14T19:49:31.959Z,14.40
2022-10-14T19:54:33.233Z,14.40
2022-10-14T20:05:20.638Z,14.40
2022-10-14T20:10:56.838Z,14.50
2022-10-14T20:28:08.979Z,14.60
2022-10-14T20:38:40.180Z,14.60
2022-10-14T20:43:38.964Z,14.70
2022-10-14T20:48:34.385Z,14.60
2022-10-14T20:53:33.403Z,14.60
2022-10-14T20:58:28.702Z,14.60
2022-10-14T21:03:33.803Z,14.70
2022-10-14T21:08:27.094Z,14.70
2022-10-14T21:13:24.215Z,14.60
2022-10-14T21:18:35.189Z,14.70
2022-10-14T21:23:36.067Z,14.70
2022-10-14T21:28:29.961Z,14.70
2022-10-14T21:33:45.513Z,14.70
2022-10-14T21:44:07.186Z,14.70
2022-10-14T21:49:06.322Z,14.80
2022-10-14T21:54:32.132Z,14.80
2022-10-14T22:12:09.466Z,14.80
2022-10-14T22:17:13.306Z,14.80
2022-10-14T22:22:05.901Z,14.90
2022-10-14T22:26:58.687Z,14.90
2022-10-14T22:31:52.117Z,15.00
2022-10-14T22:36:48.491Z,15.00
2022-10-14T22:41:51.445Z,15.10
2022-10-14T22:52:19.203Z,15.10
2022-10-14T23:04:42.263Z,15.00
2022-10-14T23:09:38.538Z,14.90
2022-10-14T23:14:34.137Z,14.80
